Time;durP1;ratioP1;P1;durP2;ratioP2;P2;SDS_P1;SDS_P2;PMS_P1;PMS_P2;Temp;Humidity;BMP_temperature;BMP_pressure;BME280_temperature;BME280_humidity;BME280_pressure;Samples;Min_cycle;Max_cycle;Signal;HPM_P1;HPM_P2
2021/11/29 00:01:45;;;;;;;2.03;1.70;;;6.60;42.10;;;;;;5052795;28;20104;-59
2021/11/29 00:04:11;;;;;;;2.90;2.20;;;6.50;38.40;;;;;;5053406;28;20036;-59
2021/11/29 00:06:37;;;;;;;3.13;1.80;;;6.60;42.10;;;;;;5050899;28;20059;-59
2021/11/29 00:09:03;;;;;;;2.63;1.40;;;6.60;41.80;;;;;;5053817;28;20058;-59
2021/11/29 00:11:29;;;;;;;1.80;1.27;;;6.60;41.40;;;;;;5044177;28;20029;-59
2021/11/29 00:13:54;;;;;;;1.93;1.23;;;6.60;40.50;;;;;;5044125;28;20514;-58
2021/11/29 00:16:20;;;;;;;2.70;1.73;;;6.70;42.40;;;;;;5034409;28;20037;-59
2021/11/29 00:18:46;;;;;;;2.60;1.57;;;6.60;41.80;;;;;;5032751;28;20046;-59
2021/11/29 00:21:13;;;;;;;2.20;1.47;;;6.60;41.60;;;;;;5042924;28;20052;-58
2021/11/29 00:23:38;;;;;;;2.87;1.63;;;6.60;41.60;;;;;;5051974;28;20029;-59
2021/11/29 00:26:04;;;;;;;2.20;1.53;;;6.60;42.40;;;;;;5048451;28;20029;-59
2021/11/29 00:28:30;;;;;;;2.13;1.47;;;6.60;39.50;;;;;;5039539;28;20029;-59
2021/11/29 00:30:56;;;;;;;2.33;1.70;;;6.50;39.20;;;;;;5049040;28;20044;-59
2021/11/29 00:33:22;;;;;;;1.87;1.30;;;6.50;41.00;;;;;;5048278;28;20049;-59
2021/11/29 00:35:48;;;;;;;1.57;1.17;;;6.60;41.60;;;;;;5053421;28;20390;-59
2021/11/29 00:38:14;;;;;;;2.10;1.50;;;6.70;42.10;;;;;;5034595;28;20037;-60
2021/11/29 00:40:42;;;;;;;1.70;1.13;;;6.60;40.60;;;;;;5036657;28;20025;-59
2021/11/29 00:43:08;;;;;;;1.73;1.50;;;6.60;40.70;;;;;;5035299;28;20037;-59
2021/11/29 00:45:34;;;;;;;1.83;1.60;;;6.70;42.80;;;;;;5033857;28;20021;-60
2021/11/29 00:48:00;;;;;;;1.67;1.37;;;6.60;42.60;;;;;;5035643;28;20104;-59
2021/11/29 00:50:25;;;;;;;2.20;1.30;;;6.60;41.40;;;;;;5053460;28;20119;-59
2021/11/29 00:52:52;;;;;;;1.30;1.20;;;6.50;40.50;;;;;;5038466;28;20546;-59
2021/11/29 00:55:18;;;;;;;2.30;1.33;;;6.50;41.50;;;;;;5053118;28;20095;-60
2021/11/29 00:57:46;;;;;;;1.63;1.23;;;6.40;40.80;;;;;;5052627;28;20033;-59
2021/11/29 01:00:17;;;;;;;1.50;1.13;;;6.50;41.80;;;;;;5053279;28;20070;-59
2021/11/29 01:02:43;;;;;;;2.67;1.50;;;6.50;41.40;;;;;;5049341;28;20048;-60
2021/11/29 01:05:09;;;;;;;1.23;1.13;;;6.50;41.40;;;;;;5052329;28;20024;-60
2021/11/29 01:07:35;;;;;;;1.03;0.90;;;6.40;38.50;;;;;;5052348;28;20033;-59
2021/11/29 01:10:02;;;;;;;2.10;1.50;;;6.40;41.20;;;;;;5052968;28;20036;-60
2021/11/29 01:12:28;;;;;;;2.43;1.40;;;6.40;41.70;;;;;;5051187;28;20037;-59
2021/11/29 01:14:53;;;;;;;2.47;1.53;;;6.40;40.50;;;;;;5052966;28;20475;-59
2021/11/29 01:17:19;;;;;;;1.20;1.10;;;6.30;38.30;;;;;;5051333;28;20402;-60
2021/11/29 01:19:44;;;;;;;1.67;1.07;;;6.40;41.40;;;;;;5050393;28;20075;-59
2021/11/29 01:22:11;;;;;;;2.00;1.40;;;6.40;40.80;;;;;;5042270;28;20033;-59
2021/11/29 01:24:37;;;;;;;2.03;0.90;;;6.40;42.40;;;;;;5033182;28;20022;-59
2021/11/29 01:27:03;;;;;;;1.60;1.00;;;6.40;41.70;;;;;;5036153;28;20025;-59
2021/11/29 01:29:28;;;;;;;3.10;1.17;;;6.40;39.90;;;;;;5034571;28;20091;-59
2021/11/29 01:31:54;;;;;;;1.00;0.90;;;6.40;42.60;;;;;;5044578;28;20037;-59
2021/11/29 01:34:20;;;;;;;2.20;1.13;;;6.40;41.00;;;;;;5047668;28;20053;-59
2021/11/29 01:36:45;;;;;;;2.83;1.67;;;6.40;37.90;;;;;;5050974;28;20028;-59
2021/11/29 01:39:12;;;;;;;1.83;1.00;;;6.30;41.70;;;;;;5048385;28;20084;-59
2021/11/29 01:41:42;;;;;;;3.60;0.93;;;6.30;42.40;;;;;;5048129;28;20429;-60
2021/11/29 01:44:08;;;;;;;0.80;0.60;;;6.20;40.30;;;;;;5067762;28;20390;-60
2021/11/29 01:46:33;;;;;;;1.67;1.03;;;6.20;39.00;;;;;;5048518;28;20032;-60
2021/11/29 01:48:59;;;;;;;1.90;0.93;;;6.30;41.00;;;;;;5050458;28;20475;-60
2021/11/29 01:51:25;;;;;;;1.10;0.90;;;6.20;39.20;;;;;;5041818;28;20061;-59
2021/11/29 01:53:50;;;;;;;0.93;0.93;;;6.20;42.30;;;;;;5051596;28;20094;-60
2021/11/29 01:56:16;;;;;;;1.60;1.17;;;6.30;42.80;;;;;;5051079;28;20056;-59
2021/11/29 01:58:41;;;;;;;1.60;1.10;;;6.30;41.70;;;;;;5052316;28;20103;-59
2021/11/29 02:01:11;;;;;;;2.60;1.10;;;6.30;42.50;;;;;;5044691;28;20056;-59
2021/11/29 02:03:38;;;;;;;2.63;0.70;;;6.40;43.70;;;;;;5040434;28;20383;-59
2021/11/29 02:06:04;;;;;;;1.17;0.90;;;6.30;43.00;;;;;;5048707;28;20082;-59
2021/11/29 02:08:30;;;;;;;2.37;1.20;;;6.30;43.60;;;;;;5052617;28;20036;-59
2021/11/29 02:10:55;;;;;;;0.83;0.60;;;6.30;42.40;;;;;;5041402;28;20459;-59
2021/11/29 02:13:22;;;;;;;3.80;0.80;;;6.20;42.30;;;;;;5032761;28;20534;-61
2021/11/29 02:15:51;;;;;;;1.00;0.90;;;6.30;43.50;;;;;;5045166;28;20033;-60
2021/11/29 02:18:21;;;;;;;2.03;0.70;;;6.20;42.10;;;;;;5051197;28;20039;-60
2021/11/29 02:21:02;;;;;;;0.93;0.50;;;6.30;42.50;;;;;;5042034;28;20113;-60
2021/11/29 02:23:28;;;;;;;1.07;0.73;;;6.30;40.10;;;;;;5052403;28;20398;-60
2021/11/29 02:25:54;;;;;;;0.97;0.50;;;6.20;42.20;;;;;;5050776;28;20029;-60
2021/11/29 02:28:21;;;;;;;3.80;0.53;;;6.10;41.60;;;;;;5050795;28;20068;-60
2021/11/29 02:30:47;;;;;;;2.47;0.60;;;6.10;41.90;;;;;;5044355;28;20064;-60
2021/11/29 02:33:13;;;;;;;1.77;0.50;;;6.10;40.10;;;;;;5050413;28;20120;-59
2021/11/29 02:35:39;;;;;;;0.73;0.47;;;6.10;40.90;;;;;;5055021;28;20171;-59
2021/11/29 02:38:05;;;;;;;1.20;0.60;;;6.20;38.70;;;;;;5056294;28;20044;-59
2021/11/29 02:40:32;;;;;;;0.53;0.30;;;6.10;38.90;;;;;;5049785;28;20533;-60
2021/11/29 02:42:58;;;;;;;0.50;0.30;;;6.20;40.90;;;;;;5050718;28;20032;-60
2021/11/29 02:45:24;;;;;;;1.20;0.47;;;6.20;39.30;;;;;;5054752;28;20021;-60
2021/11/29 02:47:50;;;;;;;1.97;0.80;;;6.20;40.30;;;;;;5052997;28;20111;-60
2021/11/29 02:50:16;;;;;;;0.60;0.37;;;6.30;42.10;;;;;;5047751;28;20108;-60
2021/11/29 02:52:42;;;;;;;1.37;0.50;;;6.30;42.50;;;;;;5045016;28;20086;-60
2021/11/29 02:55:08;;;;;;;0.83;0.50;;;6.30;41.80;;;;;;5036684;28;20109;-59
2021/11/29 02:57:34;;;;;;;0.53;0.30;;;6.30;41.30;;;;;;5049619;28;20037;-60
2021/11/29 03:00:00;;;;;;;1.23;0.23;;;6.30;41.70;;;;;;5042281;28;20432;-60
2021/11/29 03:02:31;;;;;;;0.60;0.30;;;6.40;42.00;;;;;;5054136;28;20025;-61
2021/11/29 03:04:57;;;;;;;1.23;0.40;;;6.40;40.90;;;;;;5055324;28;20017;-60
2021/11/29 03:07:23;;;;;;;1.10;0.70;;;6.40;42.00;;;;;;5055198;28;20033;-61
2021/11/29 03:09:48;;;;;;;0.40;0.20;;;6.20;41.90;;;;;;5054094;28;20025;-60
2021/11/29 03:12:14;;;;;;;0.57;0.40;;;6.20;41.50;;;;;;5053622;28;20360;-60
2021/11/29 03:14:41;;;;;;;1.13;0.50;;;6.20;41.10;;;;;;5054849;28;20103;-60
2021/11/29 03:17:07;;;;;;;0.73;0.40;;;6.30;43.00;;;;;;5051969;28;20029;-60
2021/11/29 03:19:37;;;;;;;0.50;0.37;;;6.20;41.10;;;;;;5050228;28;20033;-60
2021/11/29 03:22:05;;;;;;;0.57;0.37;;;6.20;42.40;;;;;;5041605;28;20107;-59
2021/11/29 03:24:31;;;;;;;1.10;0.73;;;6.30;42.80;;;;;;5050898;28;20546;-60
2021/11/29 03:26:57;;;;;;;0.50;0.40;;;6.20;42.30;;;;;;5054161;28;20032;-60
2021/11/29 03:29:23;;;;;;;0.77;0.40;;;6.30;42.70;;;;;;5053334;28;20033;-59
2021/11/29 03:31:52;;;;;;;0.50;0.40;;;6.30;43.50;;;;;;5047519;28;20471;-60
2021/11/29 03:34:19;;;;;;;0.77;0.30;;;6.30;43.30;;;;;;5048145;28;20048;-60
2021/11/29 03:36:47;;;;;;;1.07;0.40;;;6.20;42.90;;;;;;5052595;28;20053;-60
2021/11/29 03:39:26;;;;;;;2.03;0.50;;;6.20;43.60;;;;;;5054522;28;20471;-59
2021/11/29 03:41:54;;;;;;;0.60;0.40;;;6.20;42.60;;;;;;5052162;28;20423;-61
2021/11/29 03:44:20;;;;;;;1.63;0.30;;;6.20;42.20;;;;;;5054287;28;20037;-60
2021/11/29 03:46:48;;;;;;;0.60;0.40;;;6.20;44.20;;;;;;5051076;28;20124;-60
2021/11/29 03:49:13;;;;;;;0.77;0.40;;;6.20;43.80;;;;;;5046284;28;20025;-60
2021/11/29 03:51:40;;;;;;;1.77;0.63;;;6.20;43.50;;;;;;5045493;28;20040;-60
2021/11/29 03:54:05;;;;;;;1.77;1.13;;;6.20;43.50;;;;;;5052940;28;20034;-60
2021/11/29 03:56:33;;;;;;;1.73;1.47;;;6.10;44.80;;;;;;5043017;28;20040;-60
2021/11/29 03:58:58;;;;;;;3.57;1.67;;;6.10;45.60;;;;;;5049468;28;20033;-60
2021/11/29 04:01:24;;;;;;;1.60;1.20;;;6.00;45.00;;;;;;5053484;28;20035;-60
2021/11/29 04:03:50;;;;;;;1.90;1.50;;;6.10;46.60;;;;;;5051813;28;20391;-61
2021/11/29 04:06:16;;;;;;;2.90;1.97;;;6.00;46.10;;;;;;5046770;28;20022;-60
2021/11/29 04:08:41;;;;;;;1.37;1.27;;;6.00;45.90;;;;;;5039283;28;20120;-60
2021/11/29 04:11:07;;;;;;;2.37;1.77;;;6.10;47.50;;;;;;5036597;28;20030;-60
2021/11/29 04:13:33;;;;;;;4.17;1.73;;;6.00;47.10;;;;;;5045965;28;20106;-57
2021/11/29 04:15:59;;;;;;;3.00;2.23;;;6.10;46.30;;;;;;5051770;28;20029;-59
2021/11/29 04:18:24;;;;;;;3.83;2.73;;;6.00;47.10;;;;;;5052647;28;20037;-60
2021/11/29 04:20:50;;;;;;;3.30;2.50;;;6.00;48.60;;;;;;5051468;28;20386;-58
2021/11/29 04:23:16;;;;;;;3.77;2.30;;;5.90;48.80;;;;;;5034317;28;20031;-59
2021/11/29 04:25:48;;;;;;;3.90;2.60;;;6.00;49.30;;;;;;5050091;28;20024;-59
2021/11/29 04:28:14;;;;;;;3.60;2.10;;;5.90;50.50;;;;;;5052282;28;20120;-59
2021/11/29 04:30:40;;;;;;;2.83;2.10;;;6.00;49.70;;;;;;5051311;28;20109;-59
2021/11/29 04:33:05;;;;;;;2.10;1.57;;;6.00;50.10;;;;;;5037815;28;20045;-59
2021/11/29 04:35:32;;;;;;;3.07;2.20;;;6.00;49.00;;;;;;5052512;28;20382;-59
2021/11/29 04:37:58;;;;;;;3.67;1.90;;;6.00;49.60;;;;;;5053600;28;20441;-60
2021/11/29 04:40:23;;;;;;;3.43;1.93;;;6.10;48.70;;;;;;5046712;28;20040;-60
2021/11/29 04:42:49;;;;;;;4.13;1.90;;;6.00;47.80;;;;;;5051893;28;20029;-60
2021/11/29 04:45:15;;;;;;;3.30;1.90;;;6.00;48.90;;;;;;5036575;28;20463;-58
2021/11/29 04:47:41;;;;;;;7.47;2.10;;;5.90;48.50;;;;;;5051809;28;20056;-59
2021/11/29 04:50:08;;;;;;;4.60;1.90;;;6.00;48.70;;;;;;5051857;28;20028;-59
2021/11/29 04:52:34;;;;;;;2.67;1.70;;;6.00;48.70;;;;;;5049188;28;20082;-59
2021/11/29 04:54:59;;;;;;;4.43;1.80;;;6.00;48.80;;;;;;5052812;28;20107;-60
2021/11/29 04:57:25;;;;;;;2.37;1.47;;;6.00;47.80;;;;;;5051278;28;20183;-60
2021/11/29 04:59:51;;;;;;;5.10;1.43;;;5.90;48.00;;;;;;5041809;28;20131;-60
2021/11/29 05:02:16;;;;;;;2.27;1.43;;;5.90;47.80;;;;;;5046247;28;20017;-61
2021/11/29 05:04:46;;;;;;;2.13;1.30;;;5.90;47.70;;;;;;5041189;28;20029;-61
2021/11/29 05:07:12;;;;;;;1.57;1.20;;;5.90;47.90;;;;;;5046279;28;20021;-58
2021/11/29 05:09:40;;;;;;;1.53;1.17;;;5.90;47.20;;;;;;5045397;28;20501;-60
2021/11/29 05:12:07;;;;;;;2.07;1.30;;;5.80;46.60;;;;;;5045406;28;20110;-61
2021/11/29 05:14:32;;;;;;;3.50;1.30;;;5.80;46.60;;;;;;5050566;28;20446;-59
2021/11/29 05:16:58;;;;;;;3.60;1.47;;;5.90;47.80;;;;;;5051759;28;20100;-59
2021/11/29 05:19:24;;;;;;;6.87;2.17;;;6.00;48.40;;;;;;5056589;28;20029;-59
2021/11/29 05:21:49;;;;;;;1.70;1.40;;;5.80;47.40;;;;;;5041789;28;20423;-61
2021/11/29 05:24:15;;;;;;;3.43;1.67;;;5.80;47.30;;;;;;5052726;28;20067;-60
2021/11/29 05:26:40;;;;;;;3.03;1.60;;;5.90;48.30;;;;;;5052223;28;20394;-59
2021/11/29 05:29:06;;;;;;;2.37;1.70;;;5.90;48.40;;;;;;5051814;28;20082;-58
2021/11/29 05:31:32;;;;;;;2.10;1.90;;;5.90;47.80;;;;;;5048319;28;20482;-59
2021/11/29 05:33:57;;;;;;;4.57;2.17;;;5.90;47.90;;;;;;5052488;28;20065;-60
2021/11/29 05:36:23;;;;;;;2.13;1.90;;;5.90;48.70;;;;;;5046617;28;20483;-59
2021/11/29 05:38:49;;;;;;;2.17;1.60;;;5.80;48.40;;;;;;5052154;28;20372;-59
2021/11/29 05:41:14;;;;;;;2.37;1.70;;;5.90;49.20;;;;;;5047722;28;20028;-57
2021/11/29 05:43:40;;;;;;;2.63;1.70;;;5.80;49.30;;;;;;5052515;28;20037;-59
2021/11/29 05:46:07;;;;;;;3.23;2.10;;;5.90;49.50;;;;;;5051781;28;20026;-59
2021/11/29 05:48:34;;;;;;;2.67;1.70;;;5.80;48.60;;;;;;5052455;28;20115;-59
2021/11/29 05:51:00;;;;;;;2.43;1.83;;;5.90;49.90;;;;;;5048561;28;20029;-58
2021/11/29 05:53:27;;;;;;;2.33;1.80;;;5.90;49.20;;;;;;5052860;28;20108;-59
2021/11/29 05:55:53;;;;;;;3.73;2.30;;;5.90;49.50;;;;;;5051679;28;20029;-59
2021/11/29 05:58:19;;;;;;;3.80;2.03;;;5.90;49.90;;;;;;5050716;28;20073;-58
2021/11/29 06:00:45;;;;;;;3.77;2.37;;;5.70;49.20;;;;;;5049899;28;20143;-59
2021/11/29 06:03:11;;;;;;;4.17;2.90;;;5.80;49.80;;;;;;5050604;28;20033;-59
2021/11/29 06:05:38;;;;;;;4.30;2.43;;;5.70;49.70;;;;;;5051625;28;20032;-59
2021/11/29 06:08:04;;;;;;;4.33;2.50;;;5.80;51.10;;;;;;5048819;28;20029;-58
2021/11/29 06:10:30;;;;;;;3.37;2.33;;;5.80;50.70;;;;;;5055913;28;20098;-59
2021/11/29 06:12:55;;;;;;;3.50;2.30;;;5.80;55.00;;;;;;5055569;28;20028;-59
2021/11/29 06:15:21;;;;;;;4.00;2.00;;;5.90;55.80;;;;;;5055190;28;20112;-59
2021/11/29 06:17:47;;;;;;;3.47;2.13;;;5.90;56.80;;;;;;5054873;28;20045;-59
2021/11/29 06:20:19;;;;;;;6.47;2.33;;;5.90;56.20;;;;;;5049509;28;20445;-60
2021/11/29 06:22:47;;;;;;;3.77;2.27;;;5.80;55.70;;;;;;5040720;28;20049;-61
2021/11/29 06:25:13;;;;;;;3.20;2.23;;;5.80;55.60;;;;;;5038841;28;20348;-59
2021/11/29 06:27:38;;;;;;;5.70;2.70;;;5.80;55.40;;;;;;5055012;28;20063;-60
2021/11/29 06:30:05;;;;;;;3.70;2.37;;;5.90;56.70;;;;;;5043668;28;20030;-60
2021/11/29 06:36:00;;;;;;;4.37;2.23;;;6.00;57.10;;;;;;5052530;28;20040;-59
2021/11/29 06:38:27;;;;;;;3.70;2.10;;;5.80;57.40;;;;;;5035900;28;20044;-59
2021/11/29 06:40:55;;;;;;;3.87;2.10;;;5.80;57.90;;;;;;5051676;28;20052;-59
2021/11/29 06:43:21;;;;;;;3.03;2.17;;;5.80;57.50;;;;;;5053154;28;20037;-59
2021/11/29 06:45:47;;;;;;;2.70;2.10;;;5.80;57.90;;;;;;5044378;28;20029;-59
2021/11/29 06:48:14;;;;;;;3.37;2.47;;;5.80;57.60;;;;;;5050403;28;20029;-58
2021/11/29 06:50:39;;;;;;;3.10;2.00;;;5.80;57.40;;;;;;5054505;28;20112;-58
2021/11/29 06:53:06;;;;;;;2.63;2.33;;;5.90;57.40;;;;;;5048779;28;20128;-59
2021/11/29 06:55:32;;;;;;;6.67;2.73;;;5.90;57.70;;;;;;5045723;28;20025;-59
2021/11/29 06:57:59;;;;;;;5.17;3.27;;;6.00;58.00;;;;;;5053889;28;20034;-59
2021/11/29 07:00:25;;;;;;;10.50;4.10;;;5.90;58.50;;;;;;5047240;28;20497;-59
2021/11/29 07:02:53;;;;;;;3.97;2.70;;;5.90;58.10;;;;;;5054369;28;20040;-60
2021/11/29 07:05:19;;;;;;;4.03;2.87;;;6.00;58.60;;;;;;5055064;28;20115;-59
2021/11/29 07:07:48;;;;;;;4.57;3.30;;;5.90;57.50;;;;;;5053147;28;20021;-59
2021/11/29 07:10:14;;;;;;;4.33;2.60;;;5.90;58.10;;;;;;5055001;28;20024;-59
2021/11/29 07:12:41;;;;;;;3.47;2.70;;;5.90;57.20;;;;;;5053537;28;20025;-59
2021/11/29 07:15:07;;;;;;;6.77;2.57;;;6.00;58.20;;;;;;5053473;28;20074;-60
2021/11/29 07:17:33;;;;;;;3.43;2.30;;;5.90;57.80;;;;;;5054755;28;20540;-59
2021/11/29 07:19:59;;;;;;;3.33;2.20;;;6.00;57.70;;;;;;5051983;28;20116;-59
2021/11/29 07:22:25;;;;;;;5.57;2.40;;;6.00;57.80;;;;;;5055194;28;20029;-60
2021/11/29 07:25:03;;;;;;;4.03;1.97;;;6.10;58.20;;;;;;5053772;28;20479;-59
2021/11/29 07:27:31;;;;;;;5.90;2.80;;;6.10;57.60;;;;;;5053361;28;20025;-59
2021/11/29 07:29:59;;;;;;;5.17;2.53;;;6.00;57.70;;;;;;5053365;28;20379;-59
2021/11/29 07:32:25;;;;;;;3.47;2.10;;;6.10;58.00;;;;;;5055007;28;20093;-60
2021/11/29 07:34:51;;;;;;;4.07;2.00;;;6.10;58.10;;;;;;5046858;28;20140;-60
2021/11/29 07:37:19;;;;;;;5.37;2.10;;;6.10;58.10;;;;;;5054412;28;20119;-60
2021/11/29 07:39:45;;;;;;;8.33;2.50;;;6.10;56.90;;;;;;5053736;28;20162;-59
2021/11/29 07:42:11;;;;;;;2.87;1.67;;;6.10;57.40;;;;;;5054718;28;20033;-59
2021/11/29 07:44:37;;;;;;;4.83;2.23;;;6.20;57.10;;;;;;5053036;28;20500;-58
2021/11/29 07:47:03;;;;;;;3.50;1.93;;;6.20;56.70;;;;;;5054299;28;20090;-60
2021/11/29 07:49:28;;;;;;;8.13;2.43;;;6.30;57.20;;;;;;5051076;28;20112;-60
2021/11/29 07:51:54;;;;;;;6.37;2.13;;;6.30;56.80;;;;;;5054571;28;20385;-60
2021/11/29 07:54:20;;;;;;;4.57;2.13;;;6.30;56.60;;;;;;5053303;28;20079;-60
2021/11/29 07:56:46;;;;;;;2.07;1.80;;;6.40;56.90;;;;;;5053946;28;20033;-60
2021/11/29 07:59:12;;;;;;;6.53;2.13;;;6.50;57.10;;;;;;5044611;28;20043;-60
2021/11/29 08:01:38;;;;;;;2.87;1.90;;;6.40;55.70;;;;;;5051650;28;20079;-60
2021/11/29 08:04:04;;;;;;;4.93;2.17;;;6.50;55.10;;;;;;5047000;28;20172;-58
2021/11/29 08:06:30;;;;;;;5.27;2.77;;;6.60;56.10;;;;;;5052405;28;20495;-60
2021/11/29 08:08:55;;;;;;;6.50;2.63;;;6.60;56.70;;;;;;5048672;28;20063;-59
2021/11/29 08:11:21;;;;;;;5.30;2.40;;;6.60;56.50;;;;;;5043647;28;20390;-60
2021/11/29 08:13:48;;;;;;;7.43;2.73;;;6.80;56.90;;;;;;5037217;28;20036;-60
2021/11/29 08:16:14;;;;;;;4.17;2.47;;;6.70;55.90;;;;;;5045961;28;20057;-60
2021/11/29 08:18:39;;;;;;;11.20;4.67;;;6.90;55.70;;;;;;5034347;28;20076;-60
2021/11/29 08:21:05;;;;;;;6.20;3.00;;;6.90;56.20;;;;;;5053987;28;20108;-60
2021/11/29 08:23:32;;;;;;;5.57;2.47;;;7.00;56.60;;;;;;5053359;28;20037;-60
2021/11/29 08:25:58;;;;;;;3.63;2.47;;;7.00;55.90;;;;;;5052890;28;20021;-61
2021/11/29 08:28:24;;;;;;;3.77;2.50;;;7.10;55.40;;;;;;5053534;28;20054;-60
2021/11/29 08:30:50;;;;;;;7.77;3.10;;;7.20;54.00;;;;;;5052221;28;20486;-60
2021/11/29 08:33:16;;;;;;;4.03;2.60;;;7.20;54.50;;;;;;5052145;28;20092;-60
2021/11/29 08:35:44;;;;;;;4.57;2.90;;;7.20;54.60;;;;;;5052107;28;20037;-60
2021/11/29 08:38:10;;;;;;;4.40;2.53;;;7.20;54.40;;;;;;5053213;28;20133;-60
2021/11/29 08:40:36;;;;;;;5.20;2.50;;;7.30;53.70;;;;;;5046462;28;20017;-59
2021/11/29 08:43:07;;;;;;;5.33;2.30;;;7.40;54.40;;;;;;5052591;28;20505;-59
2021/11/29 08:45:34;;;;;;;5.60;2.80;;;7.50;58.30;;;;;;5047459;28;20025;-59
2021/11/29 08:48:08;;;;;;;5.63;2.63;;;7.60;60.00;;;;;;5052844;28;20025;-57
2021/11/29 08:50:36;;;;;;;7.68;2.78;;;7.50;59.00;;;;;;5045752;28;20067;-60
2021/11/29 08:53:06;;;;;;;4.13;2.57;;;7.50;57.90;;;;;;5052527;28;20119;-59
2021/11/29 08:55:32;;;;;;;6.20;2.60;;;7.50;57.00;;;;;;5051523;28;20067;-60
2021/11/29 08:57:59;;;;;;;5.33;2.40;;;7.50;59.70;;;;;;5051139;28;20061;-60
2021/11/29 09:00:25;;;;;;;6.53;2.70;;;7.50;56.40;;;;;;5047547;28;20017;-60
2021/11/29 09:02:52;;;;;;;5.90;2.63;;;7.70;55.80;;;;;;5052305;28;20065;-60
2021/11/29 09:05:18;;;;;;;5.83;2.70;;;7.60;56.60;;;;;;5050656;28;20403;-60
2021/11/29 09:07:44;;;;;;;5.80;2.30;;;7.60;56.90;;;;;;5049189;28;20431;-60
2021/11/29 09:10:11;;;;;;;3.50;1.80;;;7.60;56.60;;;;;;5040320;28;20036;-60
2021/11/29 09:12:38;;;;;;;2.37;1.83;;;7.70;50.80;;;;;;5052066;28;20088;-60
2021/11/29 09:15:07;;;;;;;7.17;2.23;;;7.70;50.10;;;;;;5050795;28;20060;-58
2021/11/29 09:17:33;;;;;;;6.20;2.10;;;7.70;49.40;;;;;;5045821;28;20029;-59
2021/11/29 09:19:59;;;;;;;3.47;1.60;;;7.70;50.80;;;;;;5046490;28;20040;-58
2021/11/29 09:22:25;;;;;;;4.70;1.70;;;7.70;49.80;;;;;;5060874;28;20029;-60
2021/11/29 09:24:51;;;;;;;5.50;1.67;;;7.70;48.20;;;;;;5049554;28;20029;-59
2021/11/29 09:27:16;;;;;;;4.17;2.07;;;7.70;49.60;;;;;;5050392;28;20036;-59
2021/11/29 09:29:45;;;;;;;4.07;1.70;;;7.50;48.10;;;;;;5045348;28;20030;-60
2021/11/29 09:32:12;;;;;;;4.47;1.77;;;7.60;49.70;;;;;;5050380;28;20036;-59
2021/11/29 09:34:37;;;;;;;2.73;1.60;;;7.60;49.20;;;;;;5049705;28;20040;-60
2021/11/29 09:37:03;;;;;;;3.17;2.10;;;7.60;49.00;;;;;;5051353;28;20158;-58
2021/11/29 09:39:29;;;;;;;2.10;1.80;;;7.60;49.30;;;;;;5049467;28;20040;-61
2021/11/29 09:41:54;;;;;;;2.80;1.83;;;7.70;49.70;;;;;;5053074;28;20530;-60
2021/11/29 09:44:20;;;;;;;3.53;1.80;;;7.70;48.30;;;;;;5057755;28;20036;-59
2021/11/29 09:46:46;;;;;;;4.43;2.13;;;7.80;50.00;;;;;;5057970;28;20075;-59
2021/11/29 09:49:12;;;;;;;3.03;1.80;;;7.70;49.20;;;;;;5057868;28;20032;-61
2021/11/29 09:51:38;;;;;;;3.57;1.97;;;7.80;48.70;;;;;;5058349;28;20057;-58
2021/11/29 09:54:07;;;;;;;6.43;2.63;;;7.80;48.10;;;;;;5055051;28;20021;-57
2021/11/29 09:56:33;;;;;;;6.60;2.50;;;7.90;49.30;;;;;;5055424;28;20428;-59
2021/11/29 09:58:59;;;;;;;5.80;2.60;;;7.90;49.30;;;;;;5054919;28;20069;-59
2021/11/29 10:01:24;;;;;;;2.80;2.27;;;7.90;49.00;;;;;;5052248;28;20039;-60
2021/11/29 10:03:50;;;;;;;6.47;2.90;;;8.00;50.00;;;;;;5051635;28;20478;-59
2021/11/29 10:06:16;;;;;;;3.20;2.13;;;7.90;49.70;;;;;;5048041;28;20028;-60
2021/11/29 10:08:41;;;;;;;5.43;2.27;;;8.00;49.50;;;;;;5054368;28;20090;-59
2021/11/29 10:11:11;;;;;;;10.60;3.50;;;8.00;50.20;;;;;;5055522;28;20033;-59
2021/11/29 10:13:53;;;;;;;7.23;2.50;;;8.10;50.40;;;;;;5053355;28;20017;-60
2021/11/29 10:16:29;;;;;;;6.10;2.80;;;8.10;49.90;;;;;;5054663;28;20040;-60
2021/11/29 10:18:55;;;;;;;9.27;3.20;;;8.20;51.60;;;;;;5050701;28;20123;-60
2021/11/29 10:21:20;;;;;;;11.07;4.70;;;8.20;51.40;;;;;;5053186;28;20116;-61
2021/11/29 10:23:55;;;;;;;6.13;2.77;;;8.20;50.50;;;;;;5051390;28;20021;-60
2021/11/29 10:26:24;;;;;;;3.97;2.08;;;8.20;48.30;;;;;;5053434;28;20033;-58
2021/11/29 10:28:57;;;;;;;5.77;2.33;;;8.10;47.00;;;;;;5054763;28;20024;-60
2021/11/29 10:31:46;;;;;;;4.77;2.60;;;8.00;44.50;;;;;;5055085;28;20025;-60
2021/11/29 10:34:23;;;;;;;5.57;3.13;;;8.10;45.20;;;;;;5050470;28;20091;-60
2021/11/29 10:36:58;;;;;;;4.70;2.43;;;8.10;42.90;;;;;;5051920;28;20100;-60
2021/11/29 10:39:27;;;;;;;5.47;2.70;;;8.10;42.50;;;;;;5053771;28;20040;-60
2021/11/29 10:41:57;;;;;;;5.60;2.87;;;8.20;45.10;;;;;;5054462;28;20055;-59
2021/11/29 10:44:30;;;;;;;6.10;2.97;;;8.30;44.70;;;;;;5048972;28;20564;-59
2021/11/29 10:46:59;;;;;;;8.67;3.77;;;8.50;49.70;;;;;;5050228;28;20123;-60
2021/11/29 10:49:30;;;;;;;5.83;3.27;;;8.60;51.50;;;;;;5047830;28;20071;-59
2021/11/29 10:51:58;;;;;;;4.67;2.90;;;8.70;47.50;;;;;;5057849;28;20091;-59
2021/11/29 10:54:26;;;;;;;3.13;2.47;;;8.50;44.50;;;;;;5054406;28;20029;-59
2021/11/29 10:56:55;;;;;;;4.63;2.80;;;8.50;42.90;;;;;;5054274;28;20029;-59
2021/11/29 10:59:25;;;;;;;6.17;2.77;;;8.80;43.90;;;;;;5053710;28;20403;-59
2021/11/29 11:01:53;;;;;;;3.53;2.67;;;8.80;43.30;;;;;;5054592;28;20394;-59
2021/11/29 11:04:25;;;;;;;4.60;2.50;;;8.90;41.90;;;;;;5049075;28;20375;-59
2021/11/29 11:06:57;;;;;;;5.03;2.67;;;9.10;48.60;;;;;;5053791;28;20063;-58
2021/11/29 11:09:23;;;;;;;5.37;2.20;;;9.10;40.40;;;;;;5048135;28;20111;-60
2021/11/29 11:12:00;;;;;;;6.40;3.33;;;9.10;40.00;;;;;;5053247;28;20044;-60
2021/11/29 11:14:30;;;;;;;8.10;3.13;;;9.30;45.40;;;;;;5048824;28;20028;-59
2021/11/29 11:17:09;;;;;;;7.87;3.60;;;9.50;52.20;;;;;;5054388;28;20096;-59
2021/11/29 11:19:43;;;;;;;8.67;3.20;;;9.60;51.10;;;;;;5048548;28;20372;-58
2021/11/29 11:22:09;;;;;;;10.88;4.13;;;9.70;45.30;;;;;;5049787;28;20417;-59
2021/11/29 11:24:38;;;;;;;8.40;3.57;;;9.80;59.50;;;;;;5049908;28;20036;-59
2021/11/29 11:27:05;;;;;;;4.37;3.10;;;9.80;54.20;;;;;;5047814;28;20032;-59
2021/11/29 11:29:55;;;;;;;8.80;3.77;;;9.90;57.40;;;;;;5039668;28;20065;-59
2021/11/29 11:32:21;;;;;;;8.63;4.20;;;9.90;58.70;;;;;;5047730;28;20040;-59
2021/11/29 11:34:50;;;;;;;6.10;3.60;;;10.00;60.20;;;;;;5051841;28;20473;-59
2021/11/29 11:37:18;;;;;;;5.17;3.87;;;10.00;52.10;;;;;;5049912;28;20028;-57
2021/11/29 11:39:45;;;;;;;4.93;3.67;;;10.10;41.10;;;;;;5048574;28;20399;-56
2021/11/29 11:42:11;;;;;;;10.53;4.00;;;9.90;40.60;;;;;;5048322;28;20021;-57
2021/11/29 11:44:39;;;;;;;9.90;4.10;;;10.00;36.90;;;;;;5052808;28;20029;-56
2021/11/29 11:47:07;;;;;;;11.77;5.97;;;9.90;37.70;;;;;;5052795;28;20021;-58
2021/11/29 11:49:35;;;;;;;7.07;4.67;;;9.90;39.90;;;;;;5053590;28;20057;-58
2021/11/29 11:52:01;;;;;;;7.17;4.13;;;10.10;47.60;;;;;;5050596;28;20056;-57
2021/11/29 11:54:26;;;;;;;5.43;3.87;;;10.10;48.50;;;;;;5053721;28;20017;-59
2021/11/29 11:56:52;;;;;;;8.80;4.47;;;10.20;46.70;;;;;;5051583;28;20025;-60
2021/11/29 11:59:21;;;;;;;9.03;5.30;;;10.30;47.70;;;;;;5052207;28;20099;-60
2021/11/29 12:01:50;;;;;;;3.03;1.40;;;10.10;41.60;;;;;;5052502;28;20040;-61
2021/11/29 12:04:18;;;;;;;4.63;2.37;;;10.10;31.60;;;;;;5052372;28;20033;-60
2021/11/29 12:06:48;;;;;;;4.37;3.07;;;10.20;29.70;;;;;;5051241;28;20029;-60
2021/11/29 12:09:15;;;;;;;5.67;3.87;;;10.20;36.00;;;;;;5045499;28;20355;-59
2021/11/29 12:11:47;;;;;;;4.67;2.00;;;10.20;35.90;;;;;;5044110;28;20027;-60
2021/11/29 12:14:18;;;;;;;2.27;1.10;;;10.20;32.40;;;;;;5053085;28;20035;-60
2021/11/29 12:16:43;;;;;;;3.97;0.83;;;10.20;29.20;;;;;;5051124;28;20410;-60
2021/11/29 12:19:21;;;;;;;1.83;0.90;;;10.20;27.00;;;;;;5052038;28;20043;-61
2021/11/29 12:21:47;;;;;;;1.40;0.50;;;10.10;24.50;;;;;;5048486;28;20079;-60
2021/11/29 12:24:21;;;;;;;1.13;0.60;;;10.20;20.80;;;;;;5052576;28;20488;-60
2021/11/29 12:26:46;;;;;;;2.15;0.60;;;10.30;22.60;;;;;;5050648;28;20478;-60
2021/11/29 12:29:24;;;;;;;3.90;0.43;;;10.20;20.90;;;;;;5052451;28;20056;-60
2021/11/29 12:31:50;;;;;;;0.57;0.50;;;10.10;21.40;;;;;;5049463;28;20025;-59
2021/11/29 12:37:16;;;;;;;0.50;0.20;;;10.10;17.80;;;;;;5050780;28;20029;-60
2021/11/29 12:39:45;;;;;;;0.37;0.20;;;10.00;16.00;;;;;;5052078;28;20037;-60
2021/11/29 12:42:22;;;;;;;1.33;0.50;;;10.10;14.10;;;;;;5052382;28;20375;-60
2021/11/29 12:44:54;;;;;;;1.60;0.60;;;10.00;12.90;;;;;;5051279;28;20068;-60
2021/11/29 12:47:19;;;;;;;0.40;0.30;;;10.00;14.60;;;;;;5050212;28;20028;-60
2021/11/29 12:49:46;;;;;;;1.30;0.30;;;9.90;17.30;;;;;;5051265;28;20025;-61
2021/11/29 12:52:27;;;;;;;3.60;0.53;;;10.00;16.90;;;;;;5052002;28;20028;-61
2021/11/29 12:54:53;;;;;;;1.23;0.20;;;10.10;12.50;;;;;;5052656;28;20034;-60
2021/11/29 12:57:29;;;;;;;0.63;0.40;;;10.10;14.00;;;;;;5050533;28;20021;-60
2021/11/29 13:00:07;;;;;;;2.33;0.30;;;10.20;9.70;;;;;;5044628;28;20054;-59
2021/11/29 13:02:45;;;;;;;0.97;0.33;;;10.20;12.90;;;;;;5051378;28;20029;-59